Time;durP1;ratioP1;P1;durP2;ratioP2;P2;SDS_P1;SDS_P2;PMS_P1;PMS_P2;Temp;Humidity;BMP_temperature;BMP_pressure;BME280_temperature;BME280_humidity;BME280_pressure;Samples;Min_cycle;Max_cycle;Signal;HPM_P1;HPM_P2
2022/05/28 00:01:05;;;;;;;3.83;1.20;;;9.50;99.90;;;;;;5032876;28;20199;-68
2022/05/28 00:03:33;;;;;;;3.07;1.10;;;9.50;99.90;;;;;;5033302;28;20204;-75
2022/05/28 00:06:00;;;;;;;4.10;1.17;;;9.50;99.90;;;;;;5034235;28;20283;-69
2022/05/28 00:08:27;;;;;;;1.87;1.07;;;9.40;99.90;;;;;;5034423;28;20270;-76
2022/05/28 00:10:57;;;;;;;3.03;1.23;;;9.40;99.90;;;;;;5032645;28;20326;-76
2022/05/28 00:13:24;;;;;;;1.97;1.00;;;9.30;99.90;;;;;;5032915;28;20375;-77
2022/05/28 00:15:51;;;;;;;1.93;1.10;;;9.30;99.90;;;;;;5032606;28;20299;-75
2022/05/28 00:18:18;;;;;;;4.03;1.20;;;9.20;99.90;;;;;;5032520;28;20202;-69
2022/05/28 00:20:46;;;;;;;1.70;1.03;;;9.20;99.90;;;;;;5032391;28;20618;-75
2022/05/28 00:23:14;;;;;;;4.10;1.00;;;9.20;99.90;;;;;;5032651;28;20208;-76
2022/05/28 00:25:40;;;;;;;3.80;1.30;;;9.10;99.90;;;;;;5032722;28;20203;-76
2022/05/28 00:28:08;;;;;;;3.30;1.20;;;9.10;99.90;;;;;;5032379;28;20199;-73
2022/05/28 00:30:35;;;;;;;3.20;1.17;;;9.10;99.90;;;;;;5033681;28;20268;-76
2022/05/28 00:33:02;;;;;;;3.00;0.90;;;9.10;99.90;;;;;;5032606;28;20272;-75
2022/05/28 00:35:29;;;;;;;2.87;1.30;;;9.10;99.90;;;;;;5032338;28;20640;-77
2022/05/28 00:37:56;;;;;;;1.70;1.00;;;9.00;99.90;;;;;;5032164;28;20233;-75
2022/05/28 00:40:25;;;;;;;5.83;1.10;;;9.00;99.90;;;;;;5032122;28;20292;-77
2022/05/28 00:42:56;;;;;;;4.23;2.07;;;9.00;99.90;;;;;;5032302;28;20286;-78
2022/05/28 00:45:23;;;;;;;5.37;0.90;;;9.00;99.90;;;;;;5014732;28;20207;-76
2022/05/28 00:47:53;;;;;;;4.37;1.17;;;9.00;99.90;;;;;;5032194;28;20206;-76
2022/05/28 00:50:20;;;;;;;3.80;1.10;;;9.00;99.90;;;;;;5031875;28;20564;-78
2022/05/28 00:52:47;;;;;;;3.03;1.10;;;8.90;99.90;;;;;;5032039;28;20291;-78
2022/05/28 00:55:17;;;;;;;3.07;0.90;;;8.90;99.90;;;;;;5033113;28;20227;-78
2022/05/28 00:57:44;;;;;;;5.83;1.00;;;8.90;99.90;;;;;;5031831;28;20226;-77
2022/05/28 01:00:19;;;;;;;3.53;1.27;;;8.90;99.90;;;;;;5031984;28;20314;-77
2022/05/28 01:02:51;;;;;;;1.87;0.90;;;8.90;99.90;;;;;;5032806;28;20226;-77
2022/05/28 01:05:48;;;;;;;3.93;1.00;;;8.90;99.90;;;;;;5031855;28;20238;-78
2022/05/28 01:08:28;;;;;;;2.90;1.03;;;8.90;99.90;;;;;;5031797;28;20195;-76
2022/05/28 01:11:05;;;;;;;5.97;1.20;;;8.90;99.90;;;;;;5032426;28;20232;-79
2022/05/28 01:13:41;;;;;;;2.07;0.93;;;8.90;99.90;;;;;;5031795;28;20209;-78
2022/05/28 01:16:37;;;;;;;2.57;1.00;;;8.90;99.90;;;;;;5031619;28;20210;-71
2022/05/28 01:19:34;;;;;;;2.63;1.20;;;8.80;99.90;;;;;;5029987;28;20291;-64
2022/05/28 01:22:22;;;;;;;4.00;1.00;;;8.80;99.90;;;;;;5031340;28;20230;-67
2022/05/28 01:25:19;;;;;;;3.47;1.47;;;8.70;99.90;;;;;;5031185;28;20297;-64
2022/05/28 01:27:58;;;;;;;4.33;1.10;;;8.70;99.90;;;;;;5031120;28;20287;-64
2022/05/28 01:30:25;;;;;;;3.00;1.10;;;8.80;99.90;;;;;;5031370;28;20322;-64
2022/05/28 01:32:55;;;;;;;3.70;1.10;;;8.80;99.90;;;;;;5031495;28;20199;-64
2022/05/28 01:35:23;;;;;;;3.97;1.20;;;8.80;99.90;;;;;;5031279;28;20211;-65
2022/05/28 01:37:51;;;;;;;2.67;1.10;;;8.80;99.90;;;;;;5031235;28;20202;-65
2022/05/28 01:40:21;;;;;;;3.13;1.20;;;8.70;99.90;;;;;;5031027;28;20213;-75
2022/05/28 01:42:58;;;;;;;2.60;1.03;;;8.70;99.90;;;;;;5031506;28;20658;-75
2022/05/28 01:45:28;;;;;;;3.17;1.00;;;8.70;99.90;;;;;;5032114;28;20199;-75
2022/05/28 01:47:59;;;;;;;2.33;1.00;;;8.60;99.90;;;;;;5032529;28;20275;-75
2022/05/28 01:50:29;;;;;;;5.00;1.27;;;8.60;99.90;;;;;;5030747;28;20259;-73
2022/05/28 01:52:59;;;;;;;2.67;1.10;;;8.50;99.90;;;;;;5030778;28;20210;-76
2022/05/28 01:55:27;;;;;;;3.33;1.10;;;8.50;99.90;;;;;;5031064;28;20249;-77
2022/05/28 01:57:55;;;;;;;4.67;1.30;;;8.40;99.90;;;;;;5031980;28;20281;-78
2022/05/28 02:00:22;;;;;;;4.43;1.30;;;8.40;99.90;;;;;;5030939;28;20650;-65
2022/05/28 02:02:49;;;;;;;2.60;1.10;;;8.40;99.90;;;;;;5030837;28;20247;-63
2022/05/28 02:05:16;;;;;;;4.10;1.30;;;8.30;99.90;;;;;;5031075;28;20214;-65
2022/05/28 02:07:43;;;;;;;3.00;1.10;;;8.30;99.90;;;;;;5030702;28;20198;-64
2022/05/28 02:10:14;;;;;;;4.43;1.30;;;8.30;99.90;;;;;;5030774;28;20706;-64
2022/05/28 02:12:47;;;;;;;7.43;1.20;;;8.30;99.90;;;;;;5031105;28;20221;-68
2022/05/28 02:15:43;;;;;;;3.10;1.10;;;8.30;99.90;;;;;;5030635;28;20301;-69
2022/05/28 02:18:26;;;;;;;3.00;1.10;;;8.30;99.90;;;;;;5030638;28;20252;-64
2022/05/28 02:21:07;;;;;;;2.70;1.00;;;8.30;99.90;;;;;;5030652;28;20655;-63
2022/05/28 02:23:38;;;;;;;2.23;1.00;;;8.30;99.90;;;;;;5032255;28;20285;-63
2022/05/28 02:26:17;;;;;;;4.40;1.13;;;8.30;99.90;;;;;;5031974;28;20212;-63
2022/05/28 02:28:46;;;;;;;5.53;1.10;;;8.30;99.90;;;;;;5030788;28;20208;-62
2022/05/28 02:31:17;;;;;;;1.93;1.20;;;8.30;99.90;;;;;;5030435;28;20314;-67
2022/05/28 02:33:45;;;;;;;1.90;1.10;;;8.30;99.90;;;;;;5030576;28;20287;-64
2022/05/28 02:36:14;;;;;;;6.40;1.30;;;8.40;99.90;;;;;;5030820;28;20212;-66
2022/05/28 02:38:43;;;;;;;3.80;1.10;;;8.40;99.90;;;;;;5030632;28;20203;-65
2022/05/28 02:41:10;;;;;;;3.03;1.10;;;8.40;99.90;;;;;;5030778;28;20205;-65
2022/05/28 02:43:38;;;;;;;5.30;1.10;;;8.40;99.90;;;;;;5030866;28;20199;-78
2022/05/28 02:46:06;;;;;;;4.50;1.50;;;8.50;99.90;;;;;;5030716;28;20215;-64
2022/05/28 02:48:33;;;;;;;5.57;1.30;;;8.60;99.90;;;;;;5030709;28;20238;-64
2022/05/28 02:51:15;;;;;;;3.17;1.17;;;8.60;99.90;;;;;;5030354;28;20306;-64
2022/05/28 02:53:42;;;;;;;2.30;1.10;;;8.50;99.90;;;;;;5031917;28;20552;-65
2022/05/28 02:56:10;;;;;;;3.83;1.17;;;8.60;99.90;;;;;;5030264;28;20207;-64
2022/05/28 02:58:39;;;;;;;5.10;1.30;;;8.60;99.90;;;;;;5030744;28;20203;-63
2022/05/28 03:01:17;;;;;;;4.70;1.30;;;8.60;99.90;;;;;;5031631;28;20269;-76
2022/05/28 03:03:44;;;;;;;4.63;1.17;;;8.60;99.90;;;;;;5031655;28;20198;-76
2022/05/28 03:06:11;;;;;;;3.47;1.20;;;8.70;99.90;;;;;;5030655;28;20203;-78
2022/05/28 03:08:39;;;;;;;5.17;1.37;;;8.80;99.90;;;;;;5031332;28;20249;-77
2022/05/28 03:11:06;;;;;;;4.30;1.20;;;8.90;99.90;;;;;;5034047;28;20231;-76
2022/05/28 03:13:33;;;;;;;6.47;1.50;;;8.90;99.90;;;;;;5033744;28;20291;-77
2022/05/28 03:16:00;;;;;;;4.37;1.10;;;8.80;99.90;;;;;;5034039;28;20207;-76
2022/05/28 03:18:26;;;;;;;2.73;1.20;;;8.90;99.90;;;;;;5034857;28;20228;-76
2022/05/28 03:20:53;;;;;;;3.23;1.30;;;8.90;99.90;;;;;;5033458;28;20658;-74
2022/05/28 03:23:20;;;;;;;3.43;1.20;;;8.90;99.90;;;;;;5033454;28;20242;-74
2022/05/28 03:25:47;;;;;;;4.20;1.37;;;8.90;99.90;;;;;;5033428;28;20743;-69
2022/05/28 03:28:14;;;;;;;1.70;1.00;;;9.00;99.90;;;;;;5033667;28;20293;-74
2022/05/28 03:30:41;;;;;;;4.43;1.20;;;9.00;99.90;;;;;;5033388;28;20229;-63
2022/05/28 03:33:08;;;;;;;4.43;1.03;;;9.00;99.90;;;;;;5033731;28;20198;-63
2022/05/28 03:35:37;;;;;;;4.03;1.20;;;9.10;99.90;;;;;;5033497;28;20268;-67
2022/05/28 03:38:05;;;;;;;3.97;1.33;;;9.10;99.90;;;;;;5033605;28;20198;-62
2022/05/28 03:40:32;;;;;;;5.87;1.30;;;9.10;99.90;;;;;;5033440;28;20692;-76
2022/05/28 03:42:59;;;;;;;4.13;1.27;;;9.10;99.90;;;;;;5033424;28;20206;-78
2022/05/28 03:45:27;;;;;;;2.83;1.17;;;9.10;99.90;;;;;;5033294;28;20301;-80
2022/05/28 03:47:54;;;;;;;4.40;1.43;;;9.20;99.90;;;;;;5033091;28;20684;-75
2022/05/28 03:50:21;;;;;;;4.67;1.63;;;9.20;99.90;;;;;;5033171;28;20230;-76
2022/05/28 03:52:48;;;;;;;2.93;1.30;;;9.20;99.90;;;;;;5034117;28;20716;-77
2022/05/28 03:55:15;;;;;;;1.10;0.97;;;9.30;99.90;;;;;;5033184;28;20285;-76
2022/05/28 03:57:42;;;;;;;5.57;1.40;;;9.30;99.90;;;;;;5033509;28;20218;-73
2022/05/28 04:00:09;;;;;;;2.73;1.10;;;9.30;99.90;;;;;;5033226;28;20230;-75
2022/05/28 04:02:36;;;;;;;2.43;1.20;;;9.30;99.90;;;;;;5034064;28;20203;-75
2022/05/28 04:05:04;;;;;;;4.60;1.40;;;9.40;99.90;;;;;;5033012;28;20210;-73
2022/05/28 04:07:30;;;;;;;5.87;1.43;;;9.40;99.90;;;;;;5033067;28;20246;-75
2022/05/28 04:09:57;;;;;;;5.73;1.33;;;9.40;99.90;;;;;;5032874;28;20199;-77
2022/05/28 04:12:24;;;;;;;2.57;1.20;;;9.40;99.90;;;;;;5034258;28;20616;-74
2022/05/28 04:14:51;;;;;;;4.40;1.40;;;9.50;99.90;;;;;;5016001;28;20691;-75
2022/05/28 04:17:18;;;;;;;4.73;1.40;;;9.40;99.90;;;;;;5033175;28;20555;-76
2022/05/28 04:19:45;;;;;;;3.77;1.60;;;9.50;99.90;;;;;;5032423;28;20273;-81
2022/05/28 04:22:12;;;;;;;3.93;1.30;;;9.50;99.90;;;;;;5032777;28;20710;-82
2022/05/28 04:24:39;;;;;;;3.23;1.20;;;9.40;99.90;;;;;;5032591;28;20222;-69
2022/05/28 04:27:06;;;;;;;3.93;1.37;;;9.40;99.90;;;;;;5033894;28;20191;-69
2022/05/28 04:29:32;;;;;;;3.13;1.37;;;9.40;99.90;;;;;;5032871;28;20210;-68
2022/05/28 04:31:59;;;;;;;3.07;1.13;;;9.30;99.90;;;;;;5032107;28;20585;-62
2022/05/28 04:34:26;;;;;;;8.60;1.40;;;9.30;99.90;;;;;;5033603;28;20202;-72
2022/05/28 04:36:53;;;;;;;3.63;1.40;;;9.30;99.90;;;;;;5033461;28;20199;-65
2022/05/28 04:39:20;;;;;;;6.33;1.80;;;9.30;99.90;;;;;;5032525;28;20290;-62
2022/05/28 04:41:47;;;;;;;1.80;1.30;;;9.30;99.90;;;;;;5032338;28;20209;-64
2022/05/28 04:44:13;;;;;;;3.30;1.30;;;9.40;99.90;;;;;;5032294;28;20644;-69
2022/05/28 04:46:40;;;;;;;2.83;1.50;;;9.50;99.90;;;;;;5032120;28;20294;-63
2022/05/28 04:49:07;;;;;;;5.10;1.30;;;9.50;99.90;;;;;;5032159;28;20203;-62
2022/05/28 04:51:34;;;;;;;10.87;1.97;;;9.70;99.90;;;;;;5031695;28;20229;-71
2022/05/28 04:54:01;;;;;;;3.63;1.20;;;9.60;99.90;;;;;;5032142;28;20207;-68
2022/05/28 04:56:28;;;;;;;2.97;1.20;;;9.60;99.90;;;;;;5032166;28;20263;-62
2022/05/28 04:58:55;;;;;;;4.87;1.30;;;9.70;99.90;;;;;;5031843;28;20643;-66
2022/05/28 05:01:23;;;;;;;2.83;1.17;;;9.70;99.90;;;;;;5033099;28;20275;-67
2022/05/28 05:03:50;;;;;;;3.80;1.20;;;9.80;99.90;;;;;;5031836;28;20337;-66
2022/05/28 05:06:18;;;;;;;4.87;1.40;;;9.80;99.90;;;;;;5031876;28;20208;-63
2022/05/28 05:08:45;;;;;;;2.93;1.20;;;9.90;99.90;;;;;;5033016;28;20192;-62
2022/05/28 05:11:13;;;;;;;6.47;1.40;;;10.10;99.90;;;;;;5031910;28;20228;-64
2022/05/28 05:13:40;;;;;;;6.50;1.27;;;10.00;99.90;;;;;;5031932;28;20211;-72
2022/05/28 05:16:12;;;;;;;4.20;1.00;;;10.10;99.90;;;;;;5031381;28;20674;-75
2022/05/28 05:18:39;;;;;;;3.40;1.20;;;10.10;99.90;;;;;;5031895;28;20282;-70
2022/05/28 05:21:07;;;;;;;3.67;1.27;;;10.20;99.90;;;;;;5030933;28;20241;-67
2022/05/28 05:23:33;;;;;;;5.73;1.43;;;10.30;99.90;;;;;;5032818;28;20728;-62
2022/05/28 05:26:00;;;;;;;4.87;1.40;;;10.40;99.90;;;;;;5014579;28;20286;-65
2022/05/28 05:28:27;;;;;;;3.77;1.40;;;10.40;99.90;;;;;;5031721;28;20683;-64
2022/05/28 05:30:54;;;;;;;4.77;1.20;;;10.40;99.90;;;;;;5030826;28;20258;-62
2022/05/28 05:33:21;;;;;;;1.90;1.13;;;10.40;99.90;;;;;;5031088;28;20634;-63
2022/05/28 05:35:48;;;;;;;6.30;1.40;;;10.40;99.90;;;;;;5031232;28;20305;-66
2022/05/28 05:38:14;;;;;;;4.07;1.50;;;10.50;99.90;;;;;;5031053;28;20568;-63
2022/05/28 05:40:41;;;;;;;3.17;1.30;;;10.50;99.90;;;;;;5031479;28;20199;-62
2022/05/28 05:43:08;;;;;;;4.17;1.60;;;10.50;99.90;;;;;;5031415;28;20668;-61
2022/05/28 05:45:35;;;;;;;3.67;1.70;;;10.60;99.90;;;;;;5031175;28;20215;-62
2022/05/28 05:48:02;;;;;;;4.27;1.40;;;10.50;99.90;;;;;;5030999;28;20203;-61
2022/05/28 05:50:29;;;;;;;3.03;1.40;;;10.60;99.90;;;;;;5031056;28;20214;-63
2022/05/28 05:52:56;;;;;;;3.93;1.50;;;10.70;99.90;;;;;;5030833;28;20724;-63
2022/05/28 05:55:23;;;;;;;3.97;1.63;;;10.70;99.90;;;;;;5030978;28;20200;-64
2022/05/28 05:57:50;;;;;;;3.57;1.50;;;10.70;99.90;;;;;;5031117;28;20286;-61
2022/05/28 06:00:17;;;;;;;3.97;1.50;;;10.80;99.90;;;;;;5030850;28;20562;-66
2022/05/28 06:02:44;;;;;;;3.77;1.57;;;10.70;99.90;;;;;;5031142;28;20290;-61
2022/05/28 06:05:11;;;;;;;5.87;1.60;;;10.70;99.90;;;;;;5030780;28;20196;-61
2022/05/28 06:07:38;;;;;;;4.23;1.73;;;10.80;99.90;;;;;;5031087;28;20314;-62
2022/05/28 06:10:08;;;;;;;3.90;1.70;;;11.00;99.90;;;;;;5032045;28;20295;-65
2022/05/28 06:12:35;;;;;;;3.63;1.30;;;10.80;99.90;;;;;;5032281;28;20219;-79
2022/05/28 06:15:03;;;;;;;4.73;1.70;;;10.60;99.90;;;;;;5031799;28;20219;-62
2022/05/28 06:17:30;;;;;;;4.03;1.40;;;10.70;99.90;;;;;;5030572;28;20207;-78
2022/05/28 06:19:57;;;;;;;3.00;1.33;;;10.90;99.90;;;;;;5030541;28;20231;-77
2022/05/28 06:22:24;;;;;;;3.70;1.30;;;11.20;99.90;;;;;;5030583;28;20584;-80
2022/05/28 06:24:51;;;;;;;4.53;1.63;;;11.30;99.90;;;;;;5032234;28;20280;-80
2022/05/28 06:27:17;;;;;;;3.47;1.60;;;11.30;99.90;;;;;;5030580;28;20669;-78
2022/05/28 06:29:44;;;;;;;5.37;1.60;;;11.00;99.90;;;;;;5031122;28;20202;-80
2022/05/28 06:32:11;;;;;;;3.53;1.70;;;11.10;99.90;;;;;;5030548;28;20223;-78
2022/05/28 06:34:38;;;;;;;3.40;1.67;;;11.10;99.90;;;;;;5030610;28;20192;-62
2022/05/28 06:37:09;;;;;;;3.63;1.50;;;11.10;99.90;;;;;;5030499;28;20290;-62
2022/05/28 06:39:36;;;;;;;3.20;1.40;;;11.20;99.90;;;;;;5030626;28;20203;-74
2022/05/28 06:42:03;;;;;;;4.23;1.50;;;11.40;99.90;;;;;;5030936;28;20712;-62
2022/05/28 06:44:31;;;;;;;2.87;1.43;;;11.50;99.90;;;;;;5033022;28;20222;-63
2022/05/28 06:46:58;;;;;;;4.07;1.60;;;11.60;99.90;;;;;;5034321;28;20649;-63
2022/05/28 06:49:25;;;;;;;2.43;1.30;;;11.60;99.90;;;;;;5033949;28;20214;-62
2022/05/28 06:51:52;;;;;;;4.40;1.53;;;11.60;99.90;;;;;;5034233;28;20219;-63
2022/05/28 06:54:19;;;;;;;4.67;1.10;;;11.50;99.90;;;;;;5034030;28;20299;-74
2022/05/28 06:56:46;;;;;;;4.87;1.00;;;11.20;99.90;;;;;;5017500;28;20253;-68
2022/05/28 06:59:12;;;;;;;4.73;1.20;;;11.40;99.90;;;;;;5034350;28;20667;-63
2022/05/28 07:01:40;;;;;;;2.07;1.00;;;11.60;99.90;;;;;;5033494;28;20298;-73
2022/05/28 07:04:07;;;;;;;2.20;0.90;;;11.90;99.90;;;;;;5033915;28;21055;-77
2022/05/28 07:06:34;;;;;;;5.20;1.30;;;12.00;99.90;;;;;;5033720;28;20195;-74
2022/05/28 07:09:01;;;;;;;4.60;1.10;;;11.80;99.90;;;;;;5035397;28;20589;-71
2022/05/28 07:11:31;;;;;;;3.23;1.13;;;11.30;99.90;;;;;;5033887;28;20224;-77
2022/05/28 07:13:58;;;;;;;3.07;1.10;;;11.20;99.90;;;;;;5034221;28;20597;-75
2022/05/28 07:16:25;;;;;;;3.97;1.20;;;11.30;99.90;;;;;;5034684;28;20198;-78
2022/05/28 07:18:52;;;;;;;3.80;1.10;;;11.50;99.90;;;;;;5034731;28;20206;-74
2022/05/28 07:21:18;;;;;;;2.90;0.90;;;11.90;99.90;;;;;;5033431;28;20227;-79
2022/05/28 07:23:45;;;;;;;2.43;0.87;;;12.10;99.90;;;;;;5035043;28;20230;-79
2022/05/28 07:26:17;;;;;;;2.83;0.80;;;12.30;99.90;;;;;;5033944;28;20293;-79
2022/05/28 07:28:46;;;;;;;2.77;0.80;;;12.50;99.90;;;;;;5034854;28;20198;-63
2022/05/28 07:31:17;;;;;;;3.80;0.80;;;12.50;99.90;;;;;;5034807;28;20211;-62
2022/05/28 07:33:45;;;;;;;2.03;0.70;;;12.50;99.90;;;;;;5033439;28;20302;-62
2022/05/28 07:36:18;;;;;;;3.40;1.00;;;12.50;99.90;;;;;;5016700;28;20261;-67
2022/05/28 07:38:45;;;;;;;2.00;0.70;;;12.40;99.90;;;;;;5033672;28;20207;-75
2022/05/28 07:41:15;;;;;;;3.73;0.90;;;12.30;99.90;;;;;;5033445;28;20238;-67
2022/05/28 07:43:43;;;;;;;2.97;1.03;;;12.10;99.90;;;;;;5033516;28;20294;-62
2022/05/28 07:46:19;;;;;;;6.07;1.33;;;11.70;99.90;;;;;;5033059;28;20721;-78
2022/05/28 07:48:48;;;;;;;6.03;1.33;;;11.30;99.90;;;;;;5033376;28;20191;-62
2022/05/28 07:51:15;;;;;;;5.70;1.20;;;11.10;99.90;;;;;;5033063;28;20618;-62
2022/05/28 07:53:43;;;;;;;4.23;1.50;;;11.10;99.90;;;;;;5032597;28;20195;-62
2022/05/28 07:56:10;;;;;;;4.63;1.50;;;11.40;99.90;;;;;;5032822;28;20645;-65
2022/05/28 07:58:39;;;;;;;6.17;2.17;;;11.60;99.90;;;;;;5032584;28;20581;-69
2022/05/28 08:01:07;;;;;;;3.77;1.13;;;11.90;99.90;;;;;;5032889;28;20290;-61
2022/05/28 08:03:34;;;;;;;2.83;1.10;;;12.10;99.90;;;;;;5032813;28;20294;-60
2022/05/28 08:06:02;;;;;;;2.23;1.10;;;12.10;99.90;;;;;;5032683;28;20199;-61
2022/05/28 08:08:29;;;;;;;3.00;1.00;;;12.10;99.90;;;;;;5034032;28;20219;-62
2022/05/28 08:10:56;;;;;;;2.20;0.90;;;12.20;99.90;;;;;;5032516;28;20242;-62
2022/05/28 08:13:24;;;;;;;2.93;0.97;;;12.30;99.90;;;;;;5032491;28;20322;-61
2022/05/28 08:15:54;;;;;;;4.23;1.10;;;12.20;99.90;;;;;;5024485;28;20554;-61
2022/05/28 08:18:24;;;;;;;4.53;1.00;;;12.20;99.90;;;;;;5012945;28;20204;-61
2022/05/28 08:23:38;;;;;;;4.57;1.10;;;11.70;99.90;;;;;;5013306;28;20231;-61
2022/05/28 08:26:05;;;;;;;3.70;1.00;;;11.60;99.90;;;;;;5013905;28;20287;-61
2022/05/28 08:28:34;;;;;;;4.07;1.10;;;12.20;99.90;;;;;;5012415;28;20290;-61
2022/05/28 08:31:01;;;;;;;3.50;0.97;;;13.20;99.90;;;;;;5012595;28;20288;-62
2022/05/28 08:33:28;;;;;;;2.17;0.93;;;13.90;99.90;;;;;;5011749;28;20236;-69
2022/05/28 08:35:56;;;;;;;3.67;1.00;;;14.10;99.90;;;;;;5012131;28;20562;-64
2022/05/28 08:38:24;;;;;;;5.10;1.10;;;14.40;99.90;;;;;;5012325;28;20212;-75
2022/05/28 08:41:19;;;;;;;5.83;1.10;;;14.50;99.90;;;;;;5012171;28;20206;-63
2022/05/28 08:44:00;;;;;;;2.03;0.87;;;13.90;99.90;;;;;;5012432;28;20290;-76
2022/05/28 08:46:33;;;;;;;3.80;0.93;;;13.10;99.90;;;;;;5023233;28;20231;-81
2022/05/28 08:49:01;;;;;;;3.87;1.00;;;12.80;99.90;;;;;;5031604;28;20198;-81
2022/05/28 08:51:33;;;;;;;4.40;1.20;;;13.40;99.90;;;;;;5031851;28;20768;-62
2022/05/28 08:54:19;;;;;;;3.60;0.97;;;14.10;99.90;;;;;;5031560;28;20349;-64
2022/05/28 08:56:49;;;;;;;4.47;0.80;;;14.50;99.90;;;;;;5031497;28;20202;-68
2022/05/28 08:59:34;;;;;;;2.63;0.80;;;14.50;99.90;;;;;;5033131;28;20199;-63
2022/05/28 09:02:05;;;;;;;4.40;0.90;;;14.50;99.90;;;;;;5028631;28;20199;-63
2022/05/28 09:04:37;;;;;;;4.30;1.20;;;15.20;99.90;;;;;;5011390;28;20294;-63
2022/05/28 09:07:09;;;;;;;2.90;0.80;;;14.90;99.90;;;;;;5011116;28;20208;-62
2022/05/28 09:09:41;;;;;;;3.73;1.00;;;14.60;99.90;;;;;;5011471;28;20196;-62
2022/05/28 09:12:31;;;;;;;3.53;0.80;;;14.40;99.90;;;;;;5011942;28;20220;-76
2022/05/28 09:14:58;;;;;;;3.40;0.90;;;14.20;99.90;;;;;;5011827;28;20624;-80
2022/05/28 09:17:33;;;;;;;4.73;1.30;;;14.10;99.90;;;;;;4995234;28;20662;-75
2022/05/28 09:20:11;;;;;;;4.20;1.00;;;13.90;99.90;;;;;;5011260;28;20233;-79
2022/05/28 09:22:38;;;;;;;3.87;1.20;;;13.60;99.90;;;;;;5011257;28;20223;-76
2022/05/28 09:25:06;;;;;;;4.10;1.10;;;13.50;99.90;;;;;;5012507;28;20576;-74
2022/05/28 09:27:48;;;;;;;3.67;1.03;;;13.30;99.90;;;;;;5011657;28;20206;-79
2022/05/28 09:30:27;;;;;;;3.30;1.00;;;13.90;99.90;;;;;;5011496;28;20210;-75
2022/05/28 09:33:09;;;;;;;3.87;1.10;;;14.50;99.90;;;;;;5019009;28;20226;-65
2022/05/28 09:36:01;;;;;;;2.30;0.90;;;15.00;99.90;;;;;;5031249;28;20318;-74
2022/05/28 09:38:43;;;;;;;5.27;1.20;;;15.00;99.90;;;;;;5031423;28;20317;-71
2022/05/28 09:41:30;;;;;;;3.57;1.30;;;14.40;99.90;;;;;;5031189;28;20196;-72
2022/05/28 09:44:21;;;;;;;4.00;0.90;;;13.50;99.90;;;;;;5030980;28;20290;-69
2022/05/28 09:46:48;;;;;;;5.30;1.27;;;13.20;99.90;;;;;;5031533;28;20199;-73
2022/05/28 09:49:20;;;;;;;5.50;1.43;;;13.30;99.90;;;;;;5032655;28;20195;-72
2022/05/28 09:51:58;;;;;;;8.50;1.83;;;13.40;99.90;;;;;;5030752;28;20322;-72
2022/05/28 09:54:30;;;;;;;2.97;1.10;;;14.00;99.90;;;;;;5031330;28;20206;-73
2022/05/28 09:57:03;;;;;;;4.13;1.10;;;14.60;99.90;;;;;;5030883;28;20645;-72
2022/05/28 09:59:56;;;;;;;3.33;1.00;;;14.80;99.90;;;;;;5030931;28;20197;-73
2022/05/28 10:02:27;;;;;;;5.30;1.10;;;15.00;99.90;;;;;;5031077;28;20235;-72
2022/05/28 10:04:57;;;;;;;4.37;1.30;;;14.90;99.90;;;;;;5030830;28;20664;-61
2022/05/28 10:07:34;;;;;;;4.00;0.90;;;14.40;99.90;;;;;;5030637;28;20715;-62
2022/05/28 10:10:12;;;;;;;5.83;1.03;;;14.00;99.90;;;;;;5030922;28;20199;-61
2022/05/28 10:12:39;;;;;;;4.63;1.40;;;12.80;99.90;;;;;;5030777;28;20265;-61
2022/05/28 10:15:18;;;;;;;5.73;1.10;;;11.50;99.90;;;;;;5032190;28;20563;-69
2022/05/28 10:18:02;;;;;;;1.63;0.90;;;10.50;99.90;;;;;;5032787;28;20671;-61
2022/05/28 10:20:30;;;;;;;3.00;1.30;;;9.80;99.90;;;;;;5034582;28;20696;-71
2022/05/28 10:23:01;;;;;;;2.57;1.20;;;9.70;99.90;;;;;;5036191;28;20215;-71
2022/05/28 10:25:41;;;;;;;2.80;1.37;;;9.60;99.90;;;;;;5034931;28;20725;-62
2022/05/28 10:28:11;;;;;;;3.60;1.30;;;9.80;99.90;;;;;;5034805;28;20214;-71
2022/05/28 10:30:41;;;;;;;3.00;1.37;;;10.20;99.90;;;;;;5035038;28;20302;-62
2022/05/28 10:33:19;;;;;;;2.50;1.20;;;10.60;99.90;;;;;;5035854;28;20215;-62
2022/05/28 10:35:46;;;;;;;4.77;1.63;;;11.20;99.90;;;;;;5034135;28;20199;-62
2022/05/28 10:38:21;;;;;;;2.20;1.10;;;11.70;99.90;;;;;;5034466;28;20230;-61
2022/05/28 10:40:54;;;;;;;4.60;1.33;;;12.20;99.90;;;;;;5034489;28;20222;-61
2022/05/28 10:43:27;;;;;;;3.37;1.30;;;12.60;99.90;;;;;;5035797;28;20596;-71
2022/05/28 10:46:15;;;;;;;3.03;1.20;;;13.10;99.90;;;;;;5034518;28;20206;-70
2022/05/28 10:48:57;;;;;;;3.03;1.30;;;13.10;99.90;;;;;;5033896;28;20198;-61
2022/05/28 10:52:02;;;;;;;1.80;1.07;;;12.80;99.90;;;;;;5034247;28;20616;-64
2022/05/28 10:54:29;;;;;;;2.40;1.10;;;12.50;99.90;;;;;;5034260;28;20195;-61
2022/05/28 10:57:40;;;;;;;2.67;1.10;;;12.10;99.90;;;;;;5034065;28;20210;-67
2022/05/28 11:00:23;;;;;;;2.60;1.10;;;11.80;99.90;;;;;;5035495;28;20187;-60
2022/05/28 11:03:22;;;;;;;1.67;0.80;;;11.80;99.90;;;;;;5035254;28;20200;-61
2022/05/28 11:06:27;;;;;;;2.80;1.00;;;11.50;99.90;;;;;;5008244;28;20208;-61
2022/05/28 11:09:26;;;;;;;3.60;1.00;;;11.30;99.90;;;;;;5033811;28;20298;-61
2022/05/28 11:12:25;;;;;;;4.20;1.20;;;11.40;99.90;;;;;;5033721;28;20654;-62
2022/05/28 11:15:11;;;;;;;4.67;1.00;;;11.40;99.90;;;;;;5034218;28;20204;-70
2022/05/28 11:18:02;;;;;;;3.97;1.03;;;11.40;99.90;;;;;;5034189;28;20227;-68
2022/05/28 11:21:18;;;;;;;2.87;1.00;;;11.30;99.90;;;;;;5033533;28;20318;-68
2022/05/28 11:24:00;;;;;;;4.53;0.90;;;10.90;99.90;;;;;;4957922;28;20229;-68
2022/05/28 11:26:27;;;;;;;2.43;0.90;;;10.90;99.90;;;;;;4957342;28;20260;-67
2022/05/28 11:29:17;;;;;;;3.27;1.10;;;10.80;99.90;;;;;;4973469;28;20409;-60
2022/05/28 11:31:47;;;;;;;2.90;0.70;;;10.80;99.90;;;;;;4957933;28;20297;-61
2022/05/28 11:34:22;;;;;;;1.33;0.70;;;11.10;99.90;;;;;;4973590;28;20668;-60
2022/05/28 11:36:58;;;;;;;2.97;0.80;;;11.80;99.90;;;;;;4973913;28;20578;-61
2022/05/28 11:39:49;;;;;;;0.70;0.50;;;12.80;99.90;;;;;;4957600;28;20205;-61
2022/05/28 11:42:48;;;;;;;0.50;0.47;;;13.30;99.90;;;;;;4973741;28;20202;-61
2022/05/28 11:45:51;;;;;;;0.70;0.40;;;13.50;99.90;;;;;;4955547;28;20697;-60
2022/05/28 11:51:52;;;;;;;1.63;0.50;;;14.00;99.90;;;;;;4957330;28;20237;-61
2022/05/28 11:54:22;;;;;;;1.13;0.30;;;14.10;99.90;;;;;;4973527;28;20311;-61
2022/05/28 11:56:54;;;;;;;0.30;0.30;;;14.90;99.90;;;;;;4979084;28;20295;-61
2022/05/28 11:59:25;;;;;;;0.63;0.40;;;15.40;99.90;;;;;;5032945;28;20206;-67
2022/05/28 12:02:05;;;;;;;0.43;0.40;;;15.90;99.90;;;;;;5033316;28;20238;-67
2022/05/28 12:04:32;;;;;;;0.80;0.40;;;16.50;99.90;;;;;;5032848;28;20195;-61
2022/05/28 12:07:13;;;;;;;2.87;0.50;;;16.30;99.90;;;;;;5032786;28;20408;-65
2022/05/28 12:09:44;;;;;;;1.70;0.53;;;16.70;99.90;;;;;;5033134;28;20210;-61
2022/05/28 12:12:19;;;;;;;1.53;0.50;;;16.80;99.90;;;;;;5032670;28;20200;-63
2022/05/28 12:15:04;;;;;;;1.40;0.60;;;16.90;99.90;;;;;;5032832;28;20289;-62
2022/05/28 12:17:31;;;;;;;1.10;0.60;;;16.90;99.90;;;;;;5032900;28;20707;-63
2022/05/28 12:20:00;;;;;;;2.03;0.70;;;16.60;99.90;;;;;;5026766;28;21378;-62
2022/05/28 12:22:41;;;;;;;2.27;0.40;;;16.90;99.90;;;;;;5012478;28;20227;-62
2022/05/28 12:25:11;;;;;;;2.10;1.20;;;17.30;99.90;;;;;;5012805;28;20604;-62
2022/05/28 12:27:45;;;;;;;1.20;0.70;;;17.10;98.80;;;;;;5012413;28;20287;-61
2022/05/28 12:30:42;;;;;;;1.93;0.97;;;16.60;99.40;;;;;;5012936;28;20302;-62
2022/05/28 12:33:21;;;;;;;1.40;0.70;;;16.20;99.90;;;;;;5012653;28;20232;-62
2022/05/28 12:36:09;;;;;;;1.10;0.70;;;16.00;99.90;;;;;;5011871;28;20290;-62
2022/05/28 12:38:41;;;;;;;1.63;0.80;;;15.40;99.90;;;;;;5013560;28;20701;-62
2022/05/28 12:41:27;;;;;;;2.50;1.20;;;14.90;99.90;;;;;;4995545;28;20647;-62
2022/05/28 12:43:59;;;;;;;3.90;1.10;;;14.30;99.90;;;;;;5012111;28;20584;-62
2022/05/28 12:46:49;;;;;;;1.77;0.93;;;13.70;99.90;;;;;;5012238;28;20196;-65
2022/05/28 12:49:37;;;;;;;5.20;1.50;;;13.20;99.90;;;;;;5012528;28;20231;-62
2022/05/28 12:52:19;;;;;;;2.27;0.97;;;12.90;99.90;;;;;;4992773;28;20204;-62
2022/05/28 12:54:57;;;;;;;2.20;1.00;;;12.60;99.90;;;;;;4993391;28;20212;-63
2022/05/28 12:57:34;;;;;;;4.57;1.00;;;12.30;99.90;;;;;;4992685;28;20295;-62
2022/05/28 13:00:07;;;;;;;3.83;1.13;;;12.00;99.90;;;;;;4992562;28;20200;-62
2022/05/28 13:02:45;;;;;;;2.43;1.10;;;11.50;99.90;;;;;;4992469;28;20208;-62
2022/05/28 13:05:44;;;;;;;6.37;1.43;;;11.00;99.90;;;;;;4992119;28;20291;-62
2022/05/28 13:08:21;;;;;;;1.53;0.80;;;10.40;99.90;;;;;;4990475;28;20336;-62
2022/05/28 13:10:57;;;;;;;1.60;0.60;;;10.00;99.90;;;;;;4992607;28;20266;-63
2022/05/28 13:13:27;;;;;;;1.53;0.70;;;9.80;99.90;;;;;;4992260;28;20251;-63
2022/05/28 13:16:12;;;;;;;0.80;0.70;;;9.90;99.90;;;;;;4991998;28;20197;-62
2022/05/28 13:18:54;;;;;;;1.60;0.80;;;10.10;99.90;;;;;;4991891;28;20207;-64
2022/05/28 13:21:40;;;;;;;1.70;0.70;;;10.70;99.90;;;;;;4991882;28;20745;-62
2022/05/28 13:24:45;;;;;;;2.63;0.73;;;11.30;99.90;;;;;;4992367;28;20201;-62